Time;durP1;ratioP1;P1;durP2;ratioP2;P2;SDS_P1;SDS_P2;PMS_P1;PMS_P2;Temp;Humidity;BMP_temperature;BMP_pressure;BME280_temperature;BME280_humidity;BME280_pressure;Samples;Min_cycle;Max_cycle;Signal;HPM_P1;HPM_P2
2021/09/28 00:00:49;;;;;;;17.50;5.33;;;;;;;10.37;100.00;101497.56;1725513;81;21728;-91
2021/09/28 00:03:15;;;;;;;13.10;5.30;;;;;;;10.35;100.00;101495.66;1725540;81;20943;-89
2021/09/28 00:05:43;;;;;;;12.47;5.60;;;;;;;10.32;100.00;101496.09;1725629;81;20883;-89
2021/09/28 00:08:08;;;;;;;12.88;5.00;;;;;;;10.33;100.00;101501.80;1725688;81;21138;-91
2021/09/28 00:10:35;;;;;;;11.18;5.37;;;;;;;10.32;100.00;101495.28;1725742;81;21653;-91
2021/09/28 00:13:05;;;;;;;14.38;6.17;;;;;;;10.28;100.00;101494.13;1725293;81;21605;-90
2021/09/28 00:15:32;;;;;;;11.40;5.37;;;;;;;10.26;100.00;101492.97;1706838;84;21536;-92
2021/09/28 00:17:58;;;;;;;10.23;5.10;;;;;;;10.22;100.00;101488.59;1706871;84;21016;-92
2021/09/28 00:20:24;;;;;;;12.58;6.00;;;;;;;10.16;100.00;101488.72;1707038;84;21097;-90
2021/09/28 00:22:54;;;;;;;11.22;5.42;;;;;;;10.08;100.00;101490.41;1683112;84;21529;-90
2021/09/28 00:25:21;;;;;;;10.38;5.22;;;;;;;10.06;100.00;101493.85;1706525;84;21202;-90
2021/09/28 00:27:48;;;;;;;11.55;5.25;;;;;;;9.92;100.00;101490.59;1707289;84;21031;-91
2021/09/28 00:30:14;;;;;;;11.78;5.28;;;;;;;9.87;100.00;101497.19;1707482;84;21028;-91
2021/09/28 00:32:41;;;;;;;12.03;5.25;;;;;;;9.77;100.00;101495.89;1707271;84;21744;-90
2021/09/28 00:35:07;;;;;;;12.28;6.17;;;;;;;9.69;100.00;101495.41;1706990;84;21571;-90
2021/09/28 00:37:33;;;;;;;13.48;5.50;;;;;;;9.65;100.00;101497.75;1707217;84;21071;-91
2021/09/28 00:39:59;;;;;;;12.05;5.90;;;;;;;9.61;100.00;101494.39;1707188;84;21084;-90
2021/09/28 00:42:25;;;;;;;12.63;5.75;;;;;;;9.54;100.00;101493.98;1707377;84;20948;-93
2021/09/28 00:44:51;;;;;;;16.45;6.67;;;;;;;9.48;100.00;101496.78;1707344;84;21631;-91
2021/09/28 00:47:18;;;;;;;17.95;6.70;;;;;;;9.41;100.00;101495.54;1707328;84;20888;-90
2021/09/28 00:49:47;;;;;;;13.50;6.37;;;;;;;9.37;100.00;101497.03;1707353;84;21007;-91
2021/09/28 00:52:20;;;;;;;13.93;6.40;;;;;;;9.33;100.00;101493.17;1707300;84;22209;-92
2021/09/28 00:54:47;;;;;;;16.55;6.60;;;;;;;9.26;100.00;101497.80;1707314;84;21094;-91
2021/09/28 00:57:15;;;;;;;15.95;6.65;;;;;;;9.23;100.00;101500.42;1675293;84;21086;-92
2021/09/28 00:59:41;;;;;;;19.02;7.00;;;;;;;9.18;100.00;101503.53;1651508;86;21019;-92
2021/09/28 01:02:13;;;;;;;14.05;6.70;;;;;;;9.15;100.00;101504.80;1647580;86;21046;-92
2021/09/28 01:04:39;;;;;;;13.20;6.70;;;;;;;9.10;100.00;101517.56;1651188;86;21190;-91
2021/09/28 01:07:08;;;;;;;15.58;6.92;;;;;;;9.06;100.00;101517.73;1651285;86;21115;-92
2021/09/28 01:09:37;;;;;;;14.65;7.20;;;;;;;9.05;100.00;101522.80;1651344;86;21139;-91
2021/09/28 01:12:05;;;;;;;15.45;7.08;;;;;;;9.06;100.00;101516.92;1666568;84;21026;-91
2021/09/28 01:14:30;;;;;;;18.30;7.03;;;;;;;9.06;100.00;101524.45;1694898;84;21072;-90
2021/09/28 01:16:57;;;;;;;15.08;7.20;;;;;;;9.03;100.00;101520.88;1694844;84;20978;-89
2021/09/28 01:19:22;;;;;;;14.87;7.05;;;;;;;9.00;100.00;101532.09;1694893;84;21054;-91
2021/09/28 01:21:50;;;;;;;18.75;7.03;;;;;;;8.98;100.00;101532.02;1694623;84;21970;-90
2021/09/28 01:24:16;;;;;;;15.38;7.35;;;;;;;8.97;100.00;101536.57;1694769;84;21518;-90
2021/09/28 01:26:42;;;;;;;13.62;6.30;;;;;;;8.93;100.00;101533.20;1675595;84;21580;-90
2021/09/28 01:29:09;;;;;;;20.57;7.72;;;;;;;8.90;100.00;101535.00;1663860;85;21025;-90
2021/09/28 01:31:39;;;;;;;16.25;7.08;;;;;;;8.85;100.00;101533.82;1664005;85;20966;-91
2021/09/28 01:34:07;;;;;;;19.98;8.00;;;;;;;8.85;100.00;101531.63;1663240;85;21215;-91
2021/09/28 01:36:34;;;;;;;16.17;7.20;;;;;;;8.82;100.00;101538.80;1663671;85;21041;-91
2021/09/28 01:39:00;;;;;;;18.80;8.05;;;;;;;8.81;100.00;101533.14;1663604;85;21490;-91
2021/09/28 01:41:26;;;;;;;19.30;8.50;;;;;;;8.78;100.00;101532.24;1663779;85;20962;-92
2021/09/28 01:44:08;;;;;;;20.52;8.73;;;;;;;8.75;100.00;101534.85;1663717;85;20879;-91
2021/09/28 01:46:38;;;;;;;20.27;8.70;;;;;;;8.75;100.00;101530.00;1663071;85;21108;-92
2021/09/28 01:49:06;;;;;;;19.98;8.18;;;;;;;8.70;100.00;101525.81;1626063;87;21068;-93
2021/09/28 01:51:32;;;;;;;24.15;9.38;;;;;;;8.71;100.00;101526.14;1626095;87;21035;-93
2021/09/28 01:53:58;;;;;;;19.10;8.50;;;;;;;8.69;100.00;101531.72;1626363;87;21134;-93
2021/09/28 01:56:25;;;;;;;18.32;8.83;;;;;;;8.66;100.00;101530.01;1626223;87;20980;-94
2021/09/28 01:58:52;;;;;;;20.37;9.03;;;;;;;8.66;100.00;101530.01;1626242;87;21171;-92
2021/09/28 02:01:18;;;;;;;20.00;8.68;;;;;;;8.61;100.00;101526.11;1626335;87;21104;-92
2021/09/28 02:03:44;;;;;;;19.87;8.73;;;;;;;8.58;100.00;101527.09;1626234;87;21107;-92
2021/09/28 02:06:12;;;;;;;20.45;8.98;;;;;;;8.50;100.00;101520.16;1626585;87;20937;-93
2021/09/28 02:08:38;;;;;;;20.48;8.85;;;;;;;8.52;100.00;101527.98;1626266;87;21091;-93
2021/09/28 02:11:04;;;;;;;24.75;9.13;;;;;;;8.50;100.00;101524.69;1625999;87;21309;-94
2021/09/28 02:13:30;;;;;;;21.87;8.60;;;;;;;8.46;100.00;101524.84;1626166;87;21697;-91
2021/09/28 02:15:56;;;;;;;21.52;8.20;;;;;;;8.42;100.00;101525.81;1625946;87;21047;-91
2021/09/28 02:18:22;;;;;;;38.35;17.32;;;;;;;8.40;100.00;101527.89;1626392;87;20929;-92
2021/09/28 02:20:48;;;;;;;44.70;18.60;;;;;;;8.27;100.00;101510.55;1626253;87;20984;-90
2021/09/28 02:23:14;;;;;;;55.55;26.23;;;;;;;8.33;100.00;101529.81;1626156;87;21062;-91
2021/09/28 02:25:40;;;;;;;57.62;25.40;;;;;;;8.19;100.00;101508.44;1625976;87;21004;-89
2021/09/28 02:28:06;;;;;;;39.03;18.87;;;;;;;8.27;100.00;101538.22;1625669;88;21086;-90
2021/09/28 02:30:32;;;;;;;22.22;9.90;;;;;;;8.25;100.00;101534.11;1625922;88;20963;-90
2021/09/28 02:32:58;;;;;;;21.75;9.03;;;;;;;8.22;100.00;101538.58;1626111;88;21026;-91
2021/09/28 02:35:24;;;;;;;20.20;8.13;;;;;;;8.16;100.00;101543.78;1626164;88;21662;-90
2021/09/28 02:37:50;;;;;;;16.55;7.37;;;;;;;8.12;100.00;101543.94;1625675;88;21600;-91
2021/09/28 02:40:17;;;;;;;16.55;7.62;;;;;;;8.08;100.00;101543.23;1626170;88;21524;-91
2021/09/28 02:42:43;;;;;;;18.90;8.20;;;;;;;8.02;100.00;101549.48;1626023;88;22200;-93
2021/09/28 02:45:11;;;;;;;17.25;7.97;;;;;;;7.97;100.00;101548.79;1633680;85;21015;-92
2021/09/28 02:47:37;;;;;;;20.92;7.67;;;;;;;7.94;100.00;101553.25;1670921;85;21141;-90
2021/09/28 02:50:04;;;;;;;18.98;7.87;;;;;;;7.91;100.00;101552.34;1670876;85;21023;-90
2021/09/28 02:52:30;;;;;;;20.43;8.28;;;;;;;7.86;100.00;101557.56;1670879;85;21032;-90
2021/09/28 02:54:56;;;;;;;18.30;7.90;;;;;;;7.85;100.00;101560.78;1670937;85;20915;-90
2021/09/28 02:57:23;;;;;;;18.10;7.97;;;;;;;7.83;100.00;101564.72;1670648;85;21042;-90
2021/09/28 02:59:49;;;;;;;16.73;7.15;;;;;;;7.80;100.00;101565.16;1670791;85;21602;-91
2021/09/28 03:02:14;;;;;;;18.25;7.12;;;;;;;7.72;100.00;101567.04;1671011;85;20934;-90
2021/09/28 03:04:40;;;;;;;17.95;7.20;;;;;;;7.57;100.00;101575.91;1670922;85;20895;-89
2021/09/28 03:07:06;;;;;;;14.43;6.75;;;;;;;7.40;100.00;101578.27;1670912;85;20982;-90
2021/09/28 03:09:32;;;;;;;17.87;7.30;;;;;;;7.31;100.00;101574.72;1670822;85;21097;-89
2021/09/28 03:11:58;;;;;;;20.72;7.75;;;;;;;7.24;100.00;101574.75;1670923;85;21664;-89
2021/09/28 03:14:24;;;;;;;15.32;7.53;;;;;;;7.13;100.00;101580.25;1670686;85;20970;-90
2021/09/28 03:16:51;;;;;;;15.85;7.50;;;;;;;7.12;100.00;101588.00;1670904;85;21105;-90
2021/09/28 03:19:17;;;;;;;17.98;7.20;;;;;;;7.11;100.00;101581.50;1670990;85;21020;-90
2021/09/28 03:21:44;;;;;;;19.80;7.45;;;;;;;7.09;100.00;101582.22;1671120;85;21104;-90
2021/09/28 03:24:11;;;;;;;14.30;6.83;;;;;;;7.00;100.00;101581.14;1670990;85;21101;-90
2021/09/28 03:26:37;;;;;;;18.85;8.03;;;;;;;6.94;100.00;101583.32;1668015;84;21042;-91
2021/09/28 03:29:03;;;;;;;13.75;6.22;;;;;;;6.88;100.00;101581.45;1663675;85;21053;-91
2021/09/28 03:31:29;;;;;;;15.65;7.12;;;;;;;6.83;100.00;101582.63;1663653;85;20937;-90
2021/09/28 03:33:55;;;;;;;21.02;7.37;;;;;;;6.80;100.00;101581.71;1663497;86;20851;-89
2021/09/28 03:36:22;;;;;;;52.62;7.45;;;;;;;6.77;100.00;101592.84;1663612;85;21949;-90
2021/09/28 03:38:47;;;;;;;22.73;6.42;;;;;;;6.75;100.00;101593.56;1663285;85;21018;-89
2021/09/28 03:41:14;;;;;;;14.73;5.55;;;;;;;6.75;100.00;101594.38;1663542;85;20981;-91
2021/09/28 03:43:39;;;;;;;14.30;6.75;;;;;;;6.76;100.00;101586.64;1663731;85;21485;-89
2021/09/28 03:46:05;;;;;;;20.57;9.28;;;;;;;6.80;100.00;101589.75;1663797;85;20990;-89
2021/09/28 03:48:32;;;;;;;26.25;10.85;;;;;;;6.88;100.00;101590.02;1663753;85;21186;-89
2021/09/28 03:50:57;;;;;;;29.10;10.58;;;;;;;6.97;100.00;101598.12;1663589;85;21022;-90
2021/09/28 03:53:24;;;;;;;24.30;9.25;;;;;;;7.08;100.00;101600.68;1663771;85;21052;-90
2021/09/28 03:55:50;;;;;;;25.57;9.88;;;;;;;7.17;100.00;101598.06;1663534;85;21095;-90
2021/09/28 03:58:16;;;;;;;25.72;9.33;;;;;;;7.27;100.00;101599.80;1663881;85;21065;-90
2021/09/28 04:00:43;;;;;;;30.57;11.88;;;;;;;7.38;100.00;101603.64;1663662;85;21068;-90
2021/09/28 04:03:10;;;;;;;35.43;14.73;;;;;;;7.49;100.00;101598.95;1663634;85;20998;-90
2021/09/28 04:05:38;;;;;;;51.95;18.87;;;;;;;7.58;100.00;101604.89;1663764;85;21013;-91
2021/09/28 04:08:05;;;;;;;50.40;19.48;;;;;;;7.66;100.00;101603.30;1663809;85;21573;-90
2021/09/28 04:10:35;;;;;;;49.15;17.80;;;;;;;7.75;100.00;101606.03;1663625;86;21482;-89
2021/09/28 04:13:02;;;;;;;46.92;15.28;;;;;;;7.84;100.00;101605.26;1663346;85;21053;-89
2021/09/28 04:15:28;;;;;;;38.90;13.80;;;;;;;7.93;100.00;101600.75;1663942;85;21010;-89
2021/09/28 04:17:54;;;;;;;35.10;11.88;;;;;;;8.04;100.00;101611.84;1663386;85;21537;-90
2021/09/28 04:20:20;;;;;;;27.27;11.15;;;;;;;8.13;100.00;101608.66;1663644;85;20970;-86
2021/09/28 04:22:46;;;;;;;31.48;10.93;;;;;;;8.22;100.00;101613.77;1663502;85;21576;-90
2021/09/28 04:25:13;;;;;;;23.00;9.18;;;;;;;8.32;100.00;101611.39;1663475;85;21153;-89
2021/09/28 04:27:39;;;;;;;21.95;9.48;;;;;;;8.41;100.00;101619.01;1684307;83;21119;-88
2021/09/28 04:30:07;;;;;;;20.77;9.60;;;;;;;8.52;100.00;101615.28;1696513;83;21082;-87
2021/09/28 04:32:33;;;;;;;19.92;8.68;;;;;;;8.60;100.00;101617.17;1670427;83;21069;-88
2021/09/28 04:34:59;;;;;;;21.00;8.83;;;;;;;8.69;100.00;101622.27;1696525;83;20994;-88
2021/09/28 04:37:25;;;;;;;20.50;9.33;;;;;;;8.76;100.00;101620.33;1710854;81;21545;-88
2021/09/28 04:39:51;;;;;;;20.80;8.98;;;;;;;8.84;100.00;101624.07;1725639;81;21542;-88
2021/09/28 04:42:17;;;;;;;24.57;9.75;;;;;;;8.92;100.00;101632.38;1725954;81;20983;-87
2021/09/28 04:44:43;;;;;;;25.35;9.48;;;;;;;9.01;100.00;101625.66;1725863;81;21003;-87
2021/09/28 04:47:10;;;;;;;22.05;8.93;;;;;;;9.09;100.00;101630.22;1725904;81;20999;-87
2021/09/28 04:49:36;;;;;;;31.10;10.05;;;;;;;9.20;100.00;101627.81;1725778;81;21880;-88
2021/09/28 04:52:03;;;;;;;26.02;9.18;;;;;;;9.28;100.00;101626.16;1725445;81;20986;-87
2021/09/28 04:54:29;;;;;;;27.40;9.90;;;;;;;9.40;100.00;101627.05;1725723;81;21554;-87
2021/09/28 04:56:54;;;;;;;28.98;10.38;;;;;;;9.50;100.00;101621.11;1725774;81;20872;-87
2021/09/28 04:59:20;;;;;;;24.15;10.28;;;;;;;9.56;100.00;101625.62;1725732;81;21644;-87
2021/09/28 05:01:46;;;;;;;29.15;9.65;;;;;;;9.63;100.00;101622.30;1725855;81;21092;-87
2021/09/28 05:04:12;;;;;;;23.22;9.73;;;;;;;9.67;100.00;101627.51;1725724;81;21490;-87
2021/09/28 05:06:38;;;;;;;25.75;9.23;;;;;;;9.77;100.00;101628.33;1725432;82;20986;-87
2021/09/28 05:09:04;;;;;;;21.50;8.38;;;;;;;9.89;100.00;101633.75;1725727;82;21054;-88
2021/09/28 05:11:30;;;;;;;25.52;8.93;;;;;;;10.00;100.00;101629.74;1725636;81;20986;-87
2021/09/28 05:13:56;;;;;;;25.12;8.75;;;;;;;10.12;100.00;101635.69;1715508;81;21160;-87
2021/09/28 05:16:22;;;;;;;21.52;8.98;;;;;;;10.29;100.00;101633.16;1670964;84;21650;-87
2021/09/28 05:18:48;;;;;;;21.82;8.85;;;;;;;10.49;100.00;101639.03;1696677;83;20899;-88
2021/09/28 05:21:14;;;;;;;22.35;8.93;;;;;;;10.72;100.00;101634.19;1696545;83;20998;-87
2021/09/28 05:23:45;;;;;;;23.85;9.25;;;;;;;11.03;100.00;101634.84;1697152;83;21066;-86
2021/09/28 05:26:08;;;;;;;19.30;8.38;;;;;;;11.43;100.00;101634.88;1692579;83;21026;-84
2021/09/28 05:28:34;;;;;;;20.32;8.40;;;;;;;11.95;100.00;101635.34;1666613;84;20969;-87
2021/09/28 05:30:59;;;;;;;21.77;7.90;;;;;;;12.38;100.00;101642.00;1663794;85;20986;-87
2021/09/28 05:33:25;;;;;;;21.90;8.50;;;;;;;12.78;100.00;101640.99;1663589;85;21655;-85
2021/09/28 05:35:52;;;;;;;19.23;7.78;;;;;;;12.93;100.00;101649.31;1663724;85;20891;-86
2021/09/28 05:38:18;;;;;;;22.02;9.43;;;;;;;13.00;100.00;101649.13;1663372;85;21185;-87
2021/09/28 05:40:44;;;;;;;22.27;9.28;;;;;;;13.14;100.00;101651.22;1663686;85;22542;-85
2021/09/28 05:43:09;;;;;;;19.50;9.60;;;;;;;13.34;100.00;101652.05;1663725;85;20899;-86
2021/09/28 05:45:35;;;;;;;21.12;8.33;;;;;;;13.56;100.00;101651.21;1663678;85;20859;-86
2021/09/28 05:48:01;;;;;;;21.05;8.78;;;;;;;13.77;100.00;101654.45;1640893;85;20871;-86
2021/09/28 05:50:27;;;;;;;18.10;8.05;;;;;;;13.96;100.00;101654.08;1663638;85;21584;-85
2021/09/28 05:52:55;;;;;;;22.55;7.97;;;;;;;13.82;100.00;101651.80;1660216;85;20973;-85
2021/09/28 05:55:21;;;;;;;18.65;7.80;;;;;;;13.91;100.00;101645.89;1663393;85;20982;-85
2021/09/28 05:57:47;;;;;;;18.62;7.55;;;;;;;14.12;100.00;101651.81;1664069;85;21048;-86
2021/09/28 06:00:17;;;;;;;20.88;7.42;;;;;;;14.42;100.00;101651.23;1663682;85;20982;-86
2021/09/28 06:02:43;;;;;;;22.98;8.43;;;;;;;14.69;100.00;101650.37;1663613;85;21242;-86
2021/09/28 06:05:10;;;;;;;19.90;7.92;;;;;;;14.99;100.00;101645.66;1663231;85;21033;-88
2021/09/28 06:07:36;;;;;;;19.95;8.50;;;;;;;16.49;100.00;101646.56;1690755;83;20994;-86
2021/09/28 06:10:04;;;;;;;21.10;7.42;;;;;;;17.93;100.00;101645.53;1691835;83;21042;-86
2021/09/28 06:12:30;;;;;;;24.72;7.53;;;;;;;19.48;100.00;101648.64;1691806;83;20951;-86
2021/09/28 06:14:56;;;;;;;24.37;8.00;;;;;;;21.24;100.00;101657.78;1691650;83;21660;-87
2021/09/28 06:17:21;;;;;;;17.42;7.15;;;;;;;21.19;100.00;101664.17;1667879;83;20946;-87
2021/09/28 06:19:47;;;;;;;18.85;7.03;;;;;;;19.92;100.00;101669.38;1691619;83;20978;-86
2021/09/28 06:22:13;;;;;;;18.75;7.75;;;;;;;19.00;100.00;101677.37;1691823;84;20894;-88
2021/09/28 06:24:39;;;;;;;28.40;7.65;;;;;;;18.19;100.00;101675.36;1691661;83;20839;-88
2021/09/28 06:27:08;;;;;;;23.40;7.50;;;;;;;17.60;100.00;101674.34;1696364;82;21153;-88
2021/09/28 06:29:34;;;;;;;23.05;7.28;;;;;;;17.18;100.00;101673.70;1725621;83;21031;-87
2021/09/28 06:32:01;;;;;;;23.87;7.70;;;;;;;17.42;100.00;101680.69;1725966;83;20980;-88
2021/09/28 06:34:27;;;;;;;20.55;7.08;;;;;;;17.39;100.00;101679.07;1726058;83;21032;-87
2021/09/28 06:36:53;;;;;;;22.52;7.55;;;;;;;17.37;100.00;101680.70;1726149;83;20905;-88
2021/09/28 06:39:20;;;;;;;20.35;7.20;;;;;;;17.33;100.00;101688.36;1721780;83;21957;-88
2021/09/28 06:41:45;;;;;;;24.35;7.05;;;;;;;17.61;100.00;101689.59;1725839;83;21561;-87
2021/09/28 06:44:11;;;;;;;23.57;7.55;;;;;;;17.60;100.00;101690.69;1725519;83;20964;-88
2021/09/28 06:46:38;;;;;;;23.32;7.55;;;;;;;17.72;100.00;101687.08;1678769;83;20901;-88
2021/09/28 06:49:04;;;;;;;17.62;6.25;;;;;;;18.05;100.00;101686.91;1668888;84;21047;-88
2021/09/28 06:51:30;;;;;;;21.75;6.65;;;;;;;17.97;100.00;101687.53;1668804;84;21059;-89
2021/09/28 06:53:57;;;;;;;20.27;6.53;;;;;;;18.08;100.00;101683.61;1685405;83;21091;-90
2021/09/28 06:56:23;;;;;;;22.05;6.72;;;;;;;18.44;100.00;101686.61;1696850;83;20981;-89
2021/09/28 06:58:51;;;;;;;22.17;6.00;;;;;;;18.78;100.00;101686.62;1696913;83;21634;-89
2021/09/28 07:01:17;;;;;;;18.65;6.28;;;;;;;18.68;100.00;101694.33;1696789;83;21024;-90
2021/09/28 07:03:42;;;;;;;18.73;5.67;;;;;;;18.71;100.00;101687.48;1696846;83;21944;-90
2021/09/28 07:06:08;;;;;;;22.27;5.80;;;;;;;18.77;96.26;101689.09;1696832;83;20900;-91
2021/09/28 07:08:34;;;;;;;22.30;6.40;;;;;;;18.60;100.00;101690.30;1696890;83;21662;-88
2021/09/28 07:11:01;;;;;;;17.85;5.83;;;;;;;18.30;97.87;101694.10;1694647;83;21028;-88
2021/09/28 07:13:27;;;;;;;29.07;5.60;;;;;;;17.96;100.00;101695.42;1696776;83;21060;-88
2021/09/28 07:15:53;;;;;;;30.32;5.50;;;;;;;17.89;100.00;101696.30;1696841;83;21043;-88
2021/09/28 07:18:19;;;;;;;18.55;5.78;;;;;;;17.97;100.00;101699.80;1696637;83;21067;-87
2021/09/28 07:20:45;;;;;;;19.73;5.37;;;;;;;17.83;100.00;101695.51;1696816;83;20917;-87
2021/09/28 07:23:12;;;;;;;32.53;5.60;;;;;;;17.64;100.00;101704.83;1697361;83;21064;-87
2021/09/28 07:25:38;;;;;;;28.05;5.58;;;;;;;17.18;100.00;101703.66;1697036;83;21064;-88
2021/09/28 07:28:05;;;;;;;29.63;6.60;;;;;;;16.83;100.00;101696.94;1693223;82;21989;-87
2021/09/28 07:30:34;;;;;;;22.93;5.65;;;;;;;16.65;100.00;101705.06;1688685;85;20980;-91
2021/09/28 07:33:02;;;;;;;32.83;6.42;;;;;;;16.70;100.00;101703.70;1688591;85;21047;-87
2021/09/28 07:35:29;;;;;;;23.18;5.58;;;;;;;16.62;100.00;101706.45;1688719;85;21019;-90
2021/09/28 07:37:55;;;;;;;29.30;5.35;;;;;;;16.73;100.00;101700.44;1688685;85;20996;-88
2021/09/28 07:40:21;;;;;;;31.17;5.58;;;;;;;16.99;100.00;101706.14;1688577;85;21084;-88
2021/09/28 07:42:48;;;;;;;25.12;6.92;;;;;;;16.80;100.00;101706.47;1688636;85;21007;-87
2021/09/28 07:45:15;;;;;;;19.75;5.90;;;;;;;16.73;100.00;101705.33;1688676;85;21086;-88
2021/09/28 07:47:41;;;;;;;23.10;5.58;;;;;;;16.86;100.00;101703.19;1688713;85;20992;-88
2021/09/28 07:50:10;;;;;;;25.70;5.08;;;;;;;16.94;100.00;101702.61;1688820;85;20999;-87
2021/09/28 07:52:36;;;;;;;25.27;6.53;;;;;;;17.17;100.00;101702.01;1688637;85;21897;-87
2021/09/28 07:55:03;;;;;;;33.58;5.80;;;;;;;17.37;100.00;101700.33;1688645;85;21240;-86
2021/09/28 07:57:29;;;;;;;17.65;4.70;;;;;;;17.44;100.00;101702.19;1688278;85;21070;-85
2021/09/28 07:59:55;;;;;;;29.63;5.28;;;;;;;17.56;100.00;101705.44;1674519;85;20991;-87
2021/09/28 08:02:22;;;;;;;31.90;5.75;;;;;;;17.75;100.00;101697.98;1688789;85;20908;-86
2021/09/28 08:04:48;;;;;;;22.13;5.85;;;;;;;17.86;100.00;101697.67;1688399;85;21167;-86
2021/09/28 08:07:17;;;;;;;25.00;6.50;;;;;;;18.01;100.00;101702.22;1688646;85;20908;-86
2021/09/28 08:09:42;;;;;;;27.85;5.97;;;;;;;18.22;100.00;101705.62;1688098;84;21000;-87
2021/09/28 08:12:09;;;;;;;25.65;6.33;;;;;;;18.41;100.00;101704.37;1688652;85;21569;-87
2021/09/28 08:14:35;;;;;;;31.20;6.80;;;;;;;18.26;97.21;101699.84;1688592;84;21591;-87
2021/09/28 08:17:01;;;;;;;24.15;5.80;;;;;;;18.35;100.00;101703.63;1688869;85;21123;-87
2021/09/28 08:19:28;;;;;;;26.07;5.03;;;;;;;18.47;100.00;101709.24;1688690;85;21004;-89
2021/09/28 08:21:54;;;;;;;33.48;5.83;;;;;;;18.29;93.66;101708.83;1688617;84;21015;-90
2021/09/28 08:24:20;;;;;;;28.87;5.58;;;;;;;18.16;93.24;101714.39;1674712;85;20900;-88
2021/09/28 08:29:31;;;;;;;22.90;5.80;;;;;;;18.21;99.66;101708.65;1687677;83;21019;-89
2021/09/28 08:31:58;;;;;;;20.35;4.87;;;;;;;18.46;96.41;101711.72;1688532;84;20996;-90
2021/09/28 08:34:24;;;;;;;22.70;5.58;;;;;;;18.62;95.35;101710.50;1688212;85;21578;-88
2021/09/28 08:36:50;;;;;;;29.80;5.55;;;;;;;18.51;88.50;101710.31;1687251;85;20933;-86
2021/09/28 08:39:17;;;;;;;25.72;5.70;;;;;;;18.51;91.81;101708.40;1686772;84;21035;-88
2021/09/28 08:41:47;;;;;;;32.33;6.03;;;;;;;18.59;88.48;101711.08;1686856;85;21162;-87
2021/09/28 08:44:14;;;;;;;26.05;5.20;;;;;;;18.37;92.97;101709.59;1688616;85;21015;-86
2021/09/28 08:46:41;;;;;;;29.75;6.08;;;;;;;18.72;90.79;101708.22;1688184;85;21043;-90
2021/09/28 08:49:07;;;;;;;32.45;5.50;;;;;;;19.32;90.74;101705.16;1663612;83;21042;-86
2021/09/28 08:51:34;;;;;;;25.80;5.62;;;;;;;19.73;86.52;101706.29;1660855;86;20980;-89
2021/09/28 08:54:00;;;;;;;25.05;5.20;;;;;;;19.65;76.82;101705.61;1660634;86;21644;-86
2021/09/28 08:56:27;;;;;;;24.92;4.67;;;;;;;19.49;81.28;101704.94;1679389;83;21059;-88
2021/09/28 08:59:07;;;;;;;30.60;4.90;;;;;;;19.94;81.59;101704.11;1688309;85;21028;-87
2021/09/28 09:01:36;;;;;;;36.35;5.20;;;;;;;20.36;76.36;101691.98;1688521;85;21012;-90
2021/09/28 09:04:18;;;;;;;30.35;4.97;;;;;;;20.62;66.95;101697.87;1687304;83;21081;-88
2021/09/28 09:06:45;;;;;;;37.93;5.37;;;;;;;20.43;68.59;101693.77;1688638;85;21162;-88
2021/09/28 09:09:14;;;;;;;20.30;5.53;;;;;;;20.95;66.93;101693.16;1688195;85;21032;-87
2021/09/28 09:11:44;;;;;;;30.02;5.22;;;;;;;21.25;65.23;101704.64;1643334;85;20986;-90
2021/09/28 09:14:25;;;;;;;19.77;5.40;;;;;;;21.29;63.09;101702.34;1609357;87;21046;-88
2021/09/28 09:16:55;;;;;;;36.45;6.20;;;;;;;21.19;65.12;101709.41;1631624;87;21114;-87
2021/09/28 09:19:27;;;;;;;21.55;6.58;;;;;;;21.20;64.64;101704.16;1645163;85;21144;-89
2021/09/28 09:21:59;;;;;;;21.30;5.40;;;;;;;21.12;61.76;101708.17;1616485;88;21114;-91
2021/09/28 09:24:49;;;;;;;23.75;5.62;;;;;;;21.04;64.35;101710.52;1616439;88;21023;-91
2021/09/28 09:27:33;;;;;;;33.48;5.28;;;;;;;21.06;60.14;101712.41;1539711;91;21054;-93
2021/09/28 09:30:13;;;;;;;22.25;5.78;;;;;;;21.04;60.88;101715.19;1486423;95;21069;-91
2021/09/28 09:32:55;;;;;;;23.92;5.08;;;;;;;21.26;61.44;101719.39;1441672;99;21296;-90
2021/09/28 09:35:31;;;;;;;31.05;6.78;;;;;;;21.36;60.69;101714.85;1440820;98;21007;-90
2021/09/28 09:38:15;;;;;;;28.73;5.17;;;;;;;21.12;58.49;101721.34;1421762;100;21465;-89
2021/09/28 09:40:48;;;;;;;31.10;5.70;;;;;;;20.82;58.77;101720.80;1401744;101;21169;-93
2021/09/28 09:43:19;;;;;;;34.23;6.08;;;;;;;20.70;59.12;101730.03;1405375;102;21201;-93
2021/09/28 09:45:45;;;;;;;31.15;5.33;;;;;;;20.40;61.80;101731.33;1390326;102;21853;-94
2021/09/28 09:48:28;;;;;;;27.27;5.00;;;;;;;20.46;61.79;101732.88;1406735;102;21750;-91
2021/09/28 09:50:57;;;;;;;23.73;5.53;;;;;;;20.29;59.95;101740.24;1406693;102;21212;-91
2021/09/28 09:53:23;;;;;;;23.95;6.10;;;;;;;20.03;61.46;101739.00;1406950;102;21457;-88
2021/09/28 09:55:50;;;;;;;23.77;5.47;;;;;;;19.73;63.17;101739.67;1406952;102;21123;-86
2021/09/28 09:58:15;;;;;;;24.82;5.58;;;;;;;19.56;64.33;101741.52;1406823;100;21376;-89
2021/09/28 10:00:41;;;;;;;25.00;5.15;;;;;;;19.40;65.29;101742.80;1406904;102;20981;-89
2021/09/28 10:03:10;;;;;;;22.70;4.85;;;;;;;19.33;67.95;101738.23;1407054;102;21045;-85
2021/09/28 10:05:37;;;;;;;36.00;5.12;;;;;;;18.99;66.65;101737.77;1406691;102;21112;-86
2021/09/28 10:08:11;;;;;;;38.88;5.90;;;;;;;18.86;71.28;101740.62;1419837;100;21106;-85
2021/09/28 10:10:38;;;;;;;34.10;5.53;;;;;;;18.69;68.86;101738.83;1470004;96;21207;-86
2021/09/28 10:13:06;;;;;;;32.50;6.62;;;;;;;18.32;71.52;101742.92;1468538;97;21100;-86
2021/09/28 10:15:32;;;;;;;32.90;4.75;;;;;;;18.23;71.86;101740.54;1478815;97;21076;-87
2021/09/28 10:17:59;;;;;;;28.25;5.95;;;;;;;18.26;73.30;101740.78;1484658;93;21121;-85
2021/09/28 10:20:31;;;;;;;30.75;5.33;;;;;;;18.24;72.61;101738.09;1518050;93;21125;-84
2021/09/28 10:23:13;;;;;;;30.40;6.08;;;;;;;18.19;79.41;101744.94;1518989;92;21231;-86
2021/09/28 10:25:44;;;;;;;30.75;5.70;;;;;;;18.20;76.71;101750.10;1555592;91;21119;-84
2021/09/28 10:28:15;;;;;;;36.05;6.03;;;;;;;17.84;76.11;101750.30;1552767;91;21074;-85
2021/09/28 10:30:48;;;;;;;40.52;5.97;;;;;;;17.65;74.11;101748.73;1547701;91;21014;-89
2021/09/28 10:33:29;;;;;;;36.38;6.58;;;;;;;17.36;77.54;101753.20;1542934;93;21124;-84
2021/09/28 10:36:07;;;;;;;30.17;5.80;;;;;;;17.61;83.86;101755.02;1496603;95;21167;-85
2021/09/28 10:39:00;;;;;;;31.55;5.92;;;;;;;17.79;76.59;101751.69;1485066;96;21114;-87
2021/09/28 10:41:42;;;;;;;34.45;6.60;;;;;;;17.70;76.41;101754.14;1485574;94;21146;-86
2021/09/28 10:47:00;;;;;;;40.25;6.40;;;;;;;17.80;79.03;101747.08;1466003;96;21038;-84
2021/09/28 10:49:35;;;;;;;35.48;5.65;;;;;;;17.86;76.33;101750.04;1473553;96;21106;-86
2021/09/28 10:52:24;;;;;;;30.68;5.35;;;;;;;17.62;75.87;101748.48;1478143;96;21114;-86
2021/09/28 10:55:12;;;;;;;30.15;5.78;;;;;;;17.69;79.21;101747.07;1462566;97;22081;-88
2021/09/28 11:00:30;;;;;;;32.85;4.85;;;;;;;18.07;84.12;101736.55;1402648;101;21156;-85
2021/09/28 11:02:59;;;;;;;31.57;5.37;;;;;;;18.44;76.66;101742.57;1380830;101;21128;-87
2021/09/28 11:05:36;;;;;;;34.88;5.40;;;;;;;18.38;75.08;101740.42;1423355;98;21055;-86
2021/09/28 11:08:04;;;;;;;33.88;5.05;;;;;;;18.34;71.46;101735.28;1418262;99;21183;-85
2021/09/28 11:10:32;;;;;;;37.67;5.70;;;;;;;18.27;71.89;101735.61;1429768;99;21142;-90
2021/09/28 11:13:08;;;;;;;35.15;4.83;;;;;;;18.54;73.23;101731.59;1429666;100;21089;-84
2021/09/28 11:15:34;;;;;;;27.62;4.83;;;;;;;18.70;66.60;101729.53;1428154;98;21412;-85
2021/09/28 11:18:11;;;;;;;46.73;5.58;;;;;;;18.54;66.68;101729.66;1432629;98;21085;-85
2021/09/28 11:20:39;;;;;;;37.90;6.17;;;;;;;18.36;66.07;101727.63;1432395;100;21144;-85
2021/09/28 11:23:12;;;;;;;32.35;5.10;;;;;;;18.26;65.67;101729.05;1432344;99;21104;-85
2021/09/28 11:25:49;;;;;;;31.57;4.37;;;;;;;18.25;66.95;101730.97;1432739;100;21146;-87